Cave Spring, Kentucky
Current Conditions -  °F | °C
As of 6:53 AM on Thursday 23 Oct 2014 (Local Time) from KBWG Reporting Station
Moderate Fog Moderate Fog  
Wind Chill: 36°   Ceiling: Unl
Heat Index: 36°   Visibility: 0.25mi
Dew Point: 34°   Wind: 0mph
Humidity: 93%   Direction: NA
Pressure: 30.25"   Gusts: NA
Location:  36.8547°N, 86.8859°W
Report Text: KBWG 231153Z AUTO 00000KT 1/4SM FG CLR 02/01 A3025 RMK AO2 SLP245 I6000 T00220011 10050 20017 51003
Loading
Personal Weather Stations






























Interactive Weather Map
Tropical Storm Tracking
New forecast layout! Learn more

10-Day Weather Forecast

Advertisements
Track Severe Weather on mobile